sensor_id;sensor_type;location;lat;lon;timestamp;temperature;humidity
3330;DHT22;1677;49.576;10.990;2023-05-07T00:01:48;15.50;99.90
3330;DHT22;1677;49.576;10.990;2023-05-07T00:04:13;15.50;99.90
3330;DHT22;1677;49.576;10.990;2023-05-07T00:06:39;15.40;99.90
3330;DHT22;1677;49.576;10.990;2023-05-07T00:09:05;15.50;99.90
3330;DHT22;1677;49.576;10.990;2023-05-07T00:11:31;15.30;99.90
3330;DHT22;1677;49.576;10.990;2023-05-07T00:13:57;15.20;99.90
3330;DHT22;1677;49.576;10.990;2023-05-07T00:16:22;15.00;99.90
3330;DHT22;1677;49.576;10.990;2023-05-07T00:18:48;14.90;99.90
3330;DHT22;1677;49.576;10.990;2023-05-07T00:21:14;14.90;99.90
3330;DHT22;1677;49.576;10.990;2023-05-07T00:23:39;14.90;99.90
3330;DHT22;1677;49.576;10.990;2023-05-07T00:26:05;14.80;99.90
3330;DHT22;1677;49.576;10.990;2023-05-07T00:28:30;14.80;99.90
3330;DHT22;1677;49.576;10.990;2023-05-07T00:30:56;14.80;99.90
3330;DHT22;1677;49.576;10.990;2023-05-07T00:33:22;14.70;99.90
3330;DHT22;1677;49.576;10.990;2023-05-07T00:35:48;14.70;99.90
3330;DHT22;1677;49.576;10.990;2023-05-07T00:38:14;14.80;99.90
3330;DHT22;1677;49.576;10.990;2023-05-07T00:40:39;14.80;99.90
3330;DHT22;1677;49.576;10.990;2023-05-07T00:43:05;14.80;99.90
3330;DHT22;1677;49.576;10.990;2023-05-07T00:45:31;14.80;99.90
3330;DHT22;1677;49.576;10.990;2023-05-07T00:47:59;14.70;99.90
3330;DHT22;1677;49.576;10.990;2023-05-07T00:50:26;14.60;99.90
3330;DHT22;1677;49.576;10.990;2023-05-07T00:52:52;14.50;99.90
3330;DHT22;1677;49.576;10.990;2023-05-07T00:55:18;14.60;99.90
3330;DHT22;1677;49.576;10.990;2023-05-07T00:57:44;14.70;99.90
3330;DHT22;1677;49.576;10.990;2023-05-07T01:00:10;14.70;99.90
3330;DHT22;1677;49.576;10.990;2023-05-07T01:02:38;14.70;99.90
3330;DHT22;1677;49.576;10.990;2023-05-07T01:05:05;14.70;99.90
3330;DHT22;1677;49.576;10.990;2023-05-07T01:07:33;14.60;99.90
3330;DHT22;1677;49.576;10.990;2023-05-07T01:10:00;14.50;99.90
3330;DHT22;1677;49.576;10.990;2023-05-07T01:12:26;14.50;99.90
3330;DHT22;1677;49.576;10.990;2023-05-07T01:14:53;14.40;99.90
3330;DHT22;1677;49.576;10.990;2023-05-07T01:17:19;14.20;99.90
3330;DHT22;1677;49.576;10.990;2023-05-07T01:19:44;14.20;99.90
3330;DHT22;1677;49.576;10.990;2023-05-07T01:22:11;14.20;99.90
3330;DHT22;1677;49.576;10.990;2023-05-07T01:24:37;14.30;99.90
3330;DHT22;1677;49.576;10.990;2023-05-07T01:27:03;14.30;99.90
3330;DHT22;1677;49.576;10.990;2023-05-07T01:29:29;14.30;99.90
3330;DHT22;1677;49.576;10.990;2023-05-07T01:31:57;14.20;99.90
3330;DHT22;1677;49.576;10.990;2023-05-07T01:34:25;14.20;99.90
3330;DHT22;1677;49.576;10.990;2023-05-07T01:36:53;14.20;99.90
3330;DHT22;1677;49.576;10.990;2023-05-07T01:39:27;14.30;99.90
3330;DHT22;1677;49.576;10.990;2023-05-07T01:41:55;14.20;99.90
3330;DHT22;1677;49.576;10.990;2023-05-07T01:44:22;14.20;99.90
3330;DHT22;1677;49.576;10.990;2023-05-07T01:46:48;14.20;99.90
3330;DHT22;1677;49.576;10.990;2023-05-07T01:49:15;14.20;99.90
3330;DHT22;1677;49.576;10.990;2023-05-07T01:51:41;14.20;99.90
3330;DHT22;1677;49.576;10.990;2023-05-07T01:54:07;14.10;99.90
3330;DHT22;1677;49.576;10.990;2023-05-07T01:56:33;14.10;99.90
3330;DHT22;1677;49.576;10.990;2023-05-07T01:58:59;14.10;99.90
3330;DHT22;1677;49.576;10.990;2023-05-07T02:01:24;14.10;99.90
3330;DHT22;1677;49.576;10.990;2023-05-07T02:03:50;14.10;99.90
3330;DHT22;1677;49.576;10.990;2023-05-07T02:06:16;14.20;99.90
3330;DHT22;1677;49.576;10.990;2023-05-07T02:08:41;14.20;99.90
3330;DHT22;1677;49.576;10.990;2023-05-07T02:11:07;14.10;99.90
3330;DHT22;1677;49.576;10.990;2023-05-07T02:13:33;14.20;99.90
3330;DHT22;1677;49.576;10.990;2023-05-07T02:16:02;14.10;99.90
3330;DHT22;1677;49.576;10.990;2023-05-07T02:18:28;14.10;99.90
3330;DHT22;1677;49.576;10.990;2023-05-07T02:20:53;14.20;99.90
3330;DHT22;1677;49.576;10.990;2023-05-07T02:23:19;14.10;99.90
3330;DHT22;1677;49.576;10.990;2023-05-07T02:25:45;14.10;99.90
3330;DHT22;1677;49.576;10.990;2023-05-07T02:28:11;14.10;99.90
3330;DHT22;1677;49.576;10.990;2023-05-07T02:30:37;14.10;99.90
3330;DHT22;1677;49.576;10.990;2023-05-07T02:33:03;14.10;99.90
3330;DHT22;1677;49.576;10.990;2023-05-07T02:35:28;14.20;99.90
3330;DHT22;1677;49.576;10.990;2023-05-07T02:37:54;14.10;99.90
3330;DHT22;1677;49.576;10.990;2023-05-07T02:40:19;14.00;99.90
3330;DHT22;1677;49.576;10.990;2023-05-07T02:42:45;14.10;99.90
3330;DHT22;1677;49.576;10.990;2023-05-07T02:45:10;14.00;99.90
3330;DHT22;1677;49.576;10.990;2023-05-07T02:47:36;13.90;99.90
3330;DHT22;1677;49.576;10.990;2023-05-07T02:50:02;13.90;99.90
3330;DHT22;1677;49.576;10.990;2023-05-07T02:52:28;14.00;99.90
3330;DHT22;1677;49.576;10.990;2023-05-07T02:54:53;13.90;99.90
3330;DHT22;1677;49.576;10.990;2023-05-07T02:57:19;14.00;99.90
3330;DHT22;1677;49.576;10.990;2023-05-07T02:59:44;13.80;99.90
3330;DHT22;1677;49.576;10.990;2023-05-07T03:02:10;13.90;99.90
3330;DHT22;1677;49.576;10.990;2023-05-07T03:04:36;13.70;99.90
3330;DHT22;1677;49.576;10.990;2023-05-07T03:07:01;13.80;99.90
3330;DHT22;1677;49.576;10.990;2023-05-07T03:09:27;13.80;99.90
3330;DHT22;1677;49.576;10.990;2023-05-07T03:11:52;13.70;99.90
3330;DHT22;1677;49.576;10.990;2023-05-07T03:14:18;13.70;99.90
3330;DHT22;1677;49.576;10.990;2023-05-07T03:16:44;13.60;99.90
3330;DHT22;1677;49.576;10.990;2023-05-07T03:19:09;13.60;99.90
3330;DHT22;1677;49.576;10.990;2023-05-07T03:21:35;13.40;99.90
3330;DHT22;1677;49.576;10.990;2023-05-07T03:24:00;13.40;99.90
3330;DHT22;1677;49.576;10.990;2023-05-07T03:26:26;13.40;99.90
3330;DHT22;1677;49.576;10.990;2023-05-07T03:28:51;13.50;99.90
3330;DHT22;1677;49.576;10.990;2023-05-07T03:31:17;13.40;99.90
3330;DHT22;1677;49.576;10.990;2023-05-07T03:33:51;13.40;99.90
3330;DHT22;1677;49.576;10.990;2023-05-07T03:36:17;13.30;99.90
3330;DHT22;1677;49.576;10.990;2023-05-07T03:38:43;13.20;99.90
3330;DHT22;1677;49.576;10.990;2023-05-07T03:41:08;13.10;99.90
3330;DHT22;1677;49.576;10.990;2023-05-07T03:43:34;13.00;99.90
3330;DHT22;1677;49.576;10.990;2023-05-07T03:45:59;13.00;99.90
3330;DHT22;1677;49.576;10.990;2023-05-07T03:48:25;13.00;99.90
3330;DHT22;1677;49.576;10.990;2023-05-07T03:50:51;12.90;99.90
3330;DHT22;1677;49.576;10.990;2023-05-07T03:53:16;12.90;99.90
3330;DHT22;1677;49.576;10.990;2023-05-07T03:55:42;12.90;99.90
3330;DHT22;1677;49.576;10.990;2023-05-07T03:58:07;12.80;99.90
3330;DHT22;1677;49.576;10.990;2023-05-07T04:00:33;12.80;99.90
3330;DHT22;1677;49.576;10.990;2023-05-07T04:03:03;12.70;99.90
3330;DHT22;1677;49.576;10.990;2023-05-07T04:05:30;12.70;99.90
3330;DHT22;1677;49.576;10.990;2023-05-07T04:07:57;12.70;99.90
3330;DHT22;1677;49.576;10.990;2023-05-07T04:10:22;12.90;99.90
3330;DHT22;1677;49.576;10.990;2023-05-07T04:12:48;13.10;99.90
3330;DHT22;1677;49.576;10.990;2023-05-07T04:15:13;13.10;99.90
3330;DHT22;1677;49.576;10.990;2023-05-07T04:17:39;13.10;99.90
3330;DHT22;1677;49.576;10.990;2023-05-07T04:20:10;13.10;99.90
3330;DHT22;1677;49.576;10.990;2023-05-07T04:22:36;13.00;99.90
3330;DHT22;1677;49.576;10.990;2023-05-07T04:25:02;13.00;99.90
3330;DHT22;1677;49.576;10.990;2023-05-07T04:27:28;13.00;99.90
3330;DHT22;1677;49.576;10.990;2023-05-07T04:29:53;12.90;99.90
3330;DHT22;1677;49.576;10.990;2023-05-07T04:32:21;12.90;99.90
3330;DHT22;1677;49.576;10.990;2023-05-07T04:34:47;13.00;99.90
3330;DHT22;1677;49.576;10.990;2023-05-07T04:37:13;13.00;99.90
3330;DHT22;1677;49.576;10.990;2023-05-07T04:39:38;13.10;99.90
3330;DHT22;1677;49.576;10.990;2023-05-07T04:42:04;13.30;99.90
3330;DHT22;1677;49.576;10.990;2023-05-07T04:44:29;13.30;99.90
3330;DHT22;1677;49.576;10.990;2023-05-07T04:46:56;13.40;99.90
3330;DHT22;1677;49.576;10.990;2023-05-07T04:49:22;13.50;99.90
3330;DHT22;1677;49.576;10.990;2023-05-07T04:51:47;13.70;99.90
3330;DHT22;1677;49.576;10.990;2023-05-07T04:54:13;13.80;99.90
3330;DHT22;1677;49.576;10.990;2023-05-07T04:56:39;14.00;99.90
3330;DHT22;1677;49.576;10.990;2023-05-07T04:59:04;14.00;99.90
3330;DHT22;1677;49.576;10.990;2023-05-07T05:01:31;14.20;99.90
3330;DHT22;1677;49.576;10.990;2023-05-07T05:03:56;14.30;99.90
3330;DHT22;1677;49.576;10.990;2023-05-07T05:06:22;14.50;99.90
3330;DHT22;1677;49.576;10.990;2023-05-07T05:08:47;14.80;99.90
3330;DHT22;1677;49.576;10.990;2023-05-07T05:11:13;14.90;99.90
3330;DHT22;1677;49.576;10.990;2023-05-07T05:13:40;15.20;99.90
3330;DHT22;1677;49.576;10.990;2023-05-07T05:16:06;15.40;99.90
3330;DHT22;1677;49.576;10.990;2023-05-07T05:18:32;15.50;99.90
3330;DHT22;1677;49.576;10.990;2023-05-07T05:20:58;15.60;99.90
3330;DHT22;1677;49.576;10.990;2023-05-07T05:23:23;15.60;99.90
3330;DHT22;1677;49.576;10.990;2023-05-07T05:25:49;15.70;99.90
3330;DHT22;1677;49.576;10.990;2023-05-07T05:28:15;15.70;99.90
3330;DHT22;1677;49.576;10.990;2023-05-07T05:30:40;15.70;99.90
3330;DHT22;1677;49.576;10.990;2023-05-07T05:33:06;15.80;99.90
3330;DHT22;1677;49.576;10.990;2023-05-07T05:35:31;15.90;99.90
3330;DHT22;1677;49.576;10.990;2023-05-07T05:37:57;16.00;99.90
3330;DHT22;1677;49.576;10.990;2023-05-07T05:40:22;16.00;99.90
3330;DHT22;1677;49.576;10.990;2023-05-07T05:42:48;16.00;99.90
3330;DHT22;1677;49.576;10.990;2023-05-07T05:45:14;15.90;99.90
3330;DHT22;1677;49.576;10.990;2023-05-07T05:47:40;15.80;99.90
3330;DHT22;1677;49.576;10.990;2023-05-07T05:50:06;16.00;99.90
3330;DHT22;1677;49.576;10.990;2023-05-07T05:52:32;16.00;99.90
3330;DHT22;1677;49.576;10.990;2023-05-07T05:54:58;16.10;99.90
3330;DHT22;1677;49.576;10.990;2023-05-07T05:57:23;16.10;99.90
3330;DHT22;1677;49.576;10.990;2023-05-07T05:59:49;16.10;99.90
3330;DHT22;1677;49.576;10.990;2023-05-07T06:02:14;16.20;99.90
3330;DHT22;1677;49.576;10.990;2023-05-07T06:04:40;16.30;99.90
3330;DHT22;1677;49.576;10.990;2023-05-07T06:07:05;16.50;99.90
3330;DHT22;1677;49.576;10.990;2023-05-07T06:09:31;16.70;99.90
3330;DHT22;1677;49.576;10.990;2023-05-07T06:11:56;16.80;99.90
3330;DHT22;1677;49.576;10.990;2023-05-07T06:14:22;16.90;99.90
3330;DHT22;1677;49.576;10.990;2023-05-07T06:16:48;16.80;99.90
3330;DHT22;1677;49.576;10.990;2023-05-07T06:19:13;16.90;99.90
3330;DHT22;1677;49.576;10.990;2023-05-07T06:21:39;17.00;99.90
3330;DHT22;1677;49.576;10.990;2023-05-07T06:24:05;17.00;99.90
3330;DHT22;1677;49.576;10.990;2023-05-07T06:26:31;17.00;99.90
3330;DHT22;1677;49.576;10.990;2023-05-07T06:28:57;16.90;99.90
3330;DHT22;1677;49.576;10.990;2023-05-07T06:31:22;17.00;99.90
3330;DHT22;1677;49.576;10.990;2023-05-07T06:33:49;17.20;99.90
3330;DHT22;1677;49.576;10.990;2023-05-07T06:36:15;17.40;99.90
3330;DHT22;1677;49.576;10.990;2023-05-07T06:38:40;17.40;99.90
3330;DHT22;1677;49.576;10.990;2023-05-07T06:41:06;17.40;99.90
3330;DHT22;1677;49.576;10.990;2023-05-07T06:43:32;17.40;99.90
3330;DHT22;1677;49.576;10.990;2023-05-07T06:45:58;17.20;99.90
3330;DHT22;1677;49.576;10.990;2023-05-07T06:48:23;17.20;99.90
3330;DHT22;1677;49.576;10.990;2023-05-07T06:50:50;17.20;99.90
3330;DHT22;1677;49.576;10.990;2023-05-07T06:53:15;17.20;99.90
3330;DHT22;1677;49.576;10.990;2023-05-07T06:55:41;17.40;99.90
3330;DHT22;1677;49.576;10.990;2023-05-07T06:58:07;17.50;99.90
3330;DHT22;1677;49.576;10.990;2023-05-07T07:00:32;17.80;99.90
3330;DHT22;1677;49.576;10.990;2023-05-07T07:02:58;18.00;99.90
3330;DHT22;1677;49.576;10.990;2023-05-07T07:05:24;18.20;99.90
3330;DHT22;1677;49.576;10.990;2023-05-07T07:07:50;18.40;99.90
3330;DHT22;1677;49.576;10.990;2023-05-07T07:10:21;18.60;99.90
3330;DHT22;1677;49.576;10.990;2023-05-07T07:12:48;18.80;99.90
3330;DHT22;1677;49.576;10.990;2023-05-07T07:15:14;18.70;99.90
3330;DHT22;1677;49.576;10.990;2023-05-07T07:17:40;18.80;99.90
3330;DHT22;1677;49.576;10.990;2023-05-07T07:20:05;18.90;99.90
3330;DHT22;1677;49.576;10.990;2023-05-07T07:22:31;19.00;99.90
3330;DHT22;1677;49.576;10.990;2023-05-07T07:24:57;18.90;99.90
3330;DHT22;1677;49.576;10.990;2023-05-07T07:27:22;18.70;99.90
3330;DHT22;1677;49.576;10.990;2023-05-07T07:29:48;18.80;99.90
3330;DHT22;1677;49.576;10.990;2023-05-07T07:32:14;18.90;99.90
3330;DHT22;1677;49.576;10.990;2023-05-07T07:34:40;19.20;99.90
3330;DHT22;1677;49.576;10.990;2023-05-07T07:37:05;19.40;99.90
3330;DHT22;1677;49.576;10.990;2023-05-07T07:39:34;19.60;99.90
3330;DHT22;1677;49.576;10.990;2023-05-07T07:42:00;19.70;99.90
3330;DHT22;1677;49.576;10.990;2023-05-07T07:44:27;19.70;99.90
3330;DHT22;1677;49.576;10.990;2023-05-07T07:46:53;19.70;99.90
3330;DHT22;1677;49.576;10.990;2023-05-07T07:49:18;19.60;99.90
3330;DHT22;1677;49.576;10.990;2023-05-07T07:51:44;19.70;99.90
3330;DHT22;1677;49.576;10.990;2023-05-07T07:54:10;19.80;99.90
3330;DHT22;1677;49.576;10.990;2023-05-07T07:56:36;19.80;99.90
3330;DHT22;1677;49.576;10.990;2023-05-07T07:59:02;19.80;99.90
3330;DHT22;1677;49.576;10.990;2023-05-07T08:01:30;19.60;99.90
3330;DHT22;1677;49.576;10.990;2023-05-07T08:03:56;19.60;99.90
3330;DHT22;1677;49.576;10.990;2023-05-07T08:06:24;19.60;99.90
3330;DHT22;1677;49.576;10.990;2023-05-07T08:08:49;19.70;99.90
3330;DHT22;1677;49.576;10.990;2023-05-07T08:11:15;20.20;99.90
3330;DHT22;1677;49.576;10.990;2023-05-07T08:13:40;20.80;99.90
3330;DHT22;1677;49.576;10.990;2023-05-07T08:16:06;21.20;99.90
3330;DHT22;1677;49.576;10.990;2023-05-07T08:18:32;21.50;99.90
3330;DHT22;1677;49.576;10.990;2023-05-07T08:20:57;21.20;99.90
3330;DHT22;1677;49.576;10.990;2023-05-07T08:23:23;21.10;99.90
3330;DHT22;1677;49.576;10.990;2023-05-07T08:25:49;21.40;99.90
3330;DHT22;1677;49.576;10.990;2023-05-07T08:28:15;22.20;99.90
3330;DHT22;1677;49.576;10.990;2023-05-07T08:30:41;22.90;99.90
3330;DHT22;1677;49.576;10.990;2023-05-07T08:33:08;23.20;98.90
3330;DHT22;1677;49.576;10.990;2023-05-07T08:35:34;23.00;97.60
3330;DHT22;1677;49.576;10.990;2023-05-07T08:38:00;23.10;98.40
3330;DHT22;1677;49.576;10.990;2023-05-07T08:40:26;23.40;96.50
3330;DHT22;1677;49.576;10.990;2023-05-07T08:42:53;23.40;96.60
3330;DHT22;1677;49.576;10.990;2023-05-07T08:45:19;23.60;96.70
3330;DHT22;1677;49.576;10.990;2023-05-07T08:47:52;24.50;97.40
3330;DHT22;1677;49.576;10.990;2023-05-07T08:50:20;25.10;95.20
3330;DHT22;1677;49.576;10.990;2023-05-07T08:52:47;26.00;92.00
3330;DHT22;1677;49.576;10.990;2023-05-07T08:55:13;27.70;90.70
3330;DHT22;1677;49.576;10.990;2023-05-07T08:57:39;29.10;83.00
3330;DHT22;1677;49.576;10.990;2023-05-07T09:00:05;30.20;77.40
3330;DHT22;1677;49.576;10.990;2023-05-07T09:02:32;30.10;74.20
3330;DHT22;1677;49.576;10.990;2023-05-07T09:04:58;29.90;70.10
3330;DHT22;1677;49.576;10.990;2023-05-07T09:07:24;30.40;68.60
3330;DHT22;1677;49.576;10.990;2023-05-07T09:09:50;31.10;66.80
3330;DHT22;1677;49.576;10.990;2023-05-07T09:12:17;30.90;63.90
3330;DHT22;1677;49.576;10.990;2023-05-07T09:14:44;30.90;68.90
3330;DHT22;1677;49.576;10.990;2023-05-07T09:17:11;31.40;60.50
3330;DHT22;1677;49.576;10.990;2023-05-07T09:19:36;30.50;61.20
3330;DHT22;1677;49.576;10.990;2023-05-07T09:22:04;29.50;64.60
3330;DHT22;1677;49.576;10.990;2023-05-07T09:24:30;28.70;63.80
3330;DHT22;1677;49.576;10.990;2023-05-07T09:27:00;28.50;63.50
3330;DHT22;1677;49.576;10.990;2023-05-07T09:29:26;28.80;65.60
3330;DHT22;1677;49.576;10.990;2023-05-07T09:31:54;28.50;67.30
3330;DHT22;1677;49.576;10.990;2023-05-07T09:34:20;28.30;68.60
3330;DHT22;1677;49.576;10.990;2023-05-07T09:36:46;28.30;73.50
3330;DHT22;1677;49.576;10.990;2023-05-07T09:39:12;27.60;66.20
3330;DHT22;1677;49.576;10.990;2023-05-07T09:41:45;28.00;70.50
3330;DHT22;1677;49.576;10.990;2023-05-07T09:44:12;28.40;65.50
3330;DHT22;1677;49.576;10.990;2023-05-07T09:46:39;28.20;64.10
3330;DHT22;1677;49.576;10.990;2023-05-07T09:49:07;27.90;60.70
3330;DHT22;1677;49.576;10.990;2023-05-07T09:51:47;27.60;60.40
3330;DHT22;1677;49.576;10.990;2023-05-07T09:54:13;27.80;61.50
3330;DHT22;1677;49.576;10.990;2023-05-07T09:56:39;29.20;62.00
3330;DHT22;1677;49.576;10.990;2023-05-07T09:59:07;29.30;57.00
3330;DHT22;1677;49.576;10.990;2023-05-07T10:01:36;29.00;56.60
3330;DHT22;1677;49.576;10.990;2023-05-07T10:04:02;29.10;55.80
3330;DHT22;1677;49.576;10.990;2023-05-07T10:06:30;29.10;57.50
3330;DHT22;1677;49.576;10.990;2023-05-07T10:08:56;30.00;59.60
3330;DHT22;1677;49.576;10.990;2023-05-07T10:11:22;30.40;57.20
3330;DHT22;1677;49.576;10.990;2023-05-07T10:13:48;30.20;55.10
3330;DHT22;1677;49.576;10.990;2023-05-07T10:16:14;29.90;56.30
3330;DHT22;1677;49.576;10.990;2023-05-07T10:18:40;29.80;58.50
3330;DHT22;1677;49.576;10.990;2023-05-07T10:21:18;29.50;58.40
3330;DHT22;1677;49.576;10.990;2023-05-07T10:24:13;29.50;60.00
3330;DHT22;1677;49.576;10.990;2023-05-07T10:26:47;29.70;59.20
3330;DHT22;1677;49.576;10.990;2023-05-07T10:29:45;29.10;57.20
3330;DHT22;1677;49.576;10.990;2023-05-07T10:32:41;28.20;59.10
3330;DHT22;1677;49.576;10.990;2023-05-07T10:35:16;27.30;62.20
3330;DHT22;1677;49.576;10.990;2023-05-07T10:37:43;26.50;64.80
3330;DHT22;1677;49.576;10.990;2023-05-07T10:40:10;26.80;67.10
3330;DHT22;1677;49.576;10.990;2023-05-07T10:42:36;27.50;63.30
3330;DHT22;1677;49.576;10.990;2023-05-07T10:45:28;27.90;59.00
3330;DHT22;1677;49.576;10.990;2023-05-07T10:48:14;28.90;56.80
3330;DHT22;1677;49.576;10.990;2023-05-07T10:50:41;30.30;56.80
3330;DHT22;1677;49.576;10.990;2023-05-07T10:56:23;29.20;53.70
3330;DHT22;1677;49.576;10.990;2023-05-07T10:58:37;29.00;54.30
3330;DHT22;1677;49.576;10.990;2023-05-07T11:01:03;28.80;54.90
3330;DHT22;1677;49.576;10.990;2023-05-07T11:03:29;28.80;60.20
3330;DHT22;1677;49.576;10.990;2023-05-07T11:06:15;28.60;59.30
3330;DHT22;1677;49.576;10.990;2023-05-07T11:08:56;29.10;57.50
3330;DHT22;1677;49.576;10.990;2023-05-07T11:11:44;30.40;55.20
3330;DHT22;1677;49.576;10.990;2023-05-07T11:14:09;31.00;52.50
3330;DHT22;1677;49.576;10.990;2023-05-07T11:16:35;30.30;51.00
3330;DHT22;1677;49.576;10.990;2023-05-07T11:19:02;30.00;51.60
3330;DHT22;1677;49.576;10.990;2023-05-07T11:21:46;30.80;55.60
3330;DHT22;1677;49.576;10.990;2023-05-07T11:24:12;31.60;51.60
3330;DHT22;1677;49.576;10.990;2023-05-07T11:26:50;30.80;53.30
3330;DHT22;1677;49.576;10.990;2023-05-07T11:29:20;31.20;55.00
3330;DHT22;1677;49.576;10.990;2023-05-07T11:31:50;32.80;49.60
3330;DHT22;1677;49.576;10.990;2023-05-07T11:34:24;33.20;46.80
3330;DHT22;1677;49.576;10.990;2023-05-07T11:36:51;31.90;49.80
3330;DHT22;1677;49.576;10.990;2023-05-07T11:39:32;30.70;50.60
3330;DHT22;1677;49.576;10.990;2023-05-07T11:42:01;28.50;55.00
3330;DHT22;1677;49.576;10.990;2023-05-07T11:44:44;28.30;57.60
3330;DHT22;1677;49.576;10.990;2023-05-07T11:47:11;28.70;54.20
3330;DHT22;1677;49.576;10.990;2023-05-07T11:49:37;28.30;56.40
3330;DHT22;1677;49.576;10.990;2023-05-07T11:52:02;27.90;57.30
3330;DHT22;1677;49.576;10.990;2023-05-07T11:54:35;27.50;56.90
3330;DHT22;1677;49.576;10.990;2023-05-07T11:57:02;27.30;59.30
3330;DHT22;1677;49.576;10.990;2023-05-07T11:59:27;27.00;59.20
3330;DHT22;1677;49.576;10.990;2023-05-07T12:01:57;26.40;59.80
3330;DHT22;1677;49.576;10.990;2023-05-07T12:04:22;26.30;65.20
3330;DHT22;1677;49.576;10.990;2023-05-07T12:06:48;26.40;60.10
3330;DHT22;1677;49.576;10.990;2023-05-07T12:09:16;26.40;61.00
3330;DHT22;1677;49.576;10.990;2023-05-07T12:11:45;26.40;66.20
3330;DHT22;1677;49.576;10.990;2023-05-07T12:14:11;27.00;65.30
3330;DHT22;1677;49.576;10.990;2023-05-07T12:16:37;27.80;64.30
3330;DHT22;1677;49.576;10.990;2023-05-07T12:19:04;28.00;59.60
3330;DHT22;1677;49.576;10.990;2023-05-07T12:21:31;28.10;61.10
3330;DHT22;1677;49.576;10.990;2023-05-07T12:23:57;27.80;60.00
3330;DHT22;1677;49.576;10.990;2023-05-07T12:26:23;27.30;62.00
3330;DHT22;1677;49.576;10.990;2023-05-07T12:28:50;27.40;61.10
3330;DHT22;1677;49.576;10.990;2023-05-07T12:31:15;27.70;61.70
3330;DHT22;1677;49.576;10.990;2023-05-07T12:33:41;28.00;58.90
3330;DHT22;1677;49.576;10.990;2023-05-07T12:36:07;28.30;58.10
3330;DHT22;1677;49.576;10.990;2023-05-07T12:38:37;27.80;58.30
3330;DHT22;1677;49.576;10.990;2023-05-07T12:41:03;27.00;57.70
3330;DHT22;1677;49.576;10.990;2023-05-07T12:43:29;26.30;57.90
3330;DHT22;1677;49.576;10.990;2023-05-07T12:46:01;25.90;58.70
3330;DHT22;1677;49.576;10.990;2023-05-07T12:48:28;26.20;65.50
3330;DHT22;1677;49.576;10.990;2023-05-07T12:50:54;26.50;61.80
3330;DHT22;1677;49.576;10.990;2023-05-07T12:53:22;26.90;62.60
3330;DHT22;1677;49.576;10.990;2023-05-07T12:55:49;27.20;63.00
3330;DHT22;1677;49.576;10.990;2023-05-07T12:58:41;26.80;59.90
3330;DHT22;1677;49.576;10.990;2023-05-07T13:01:07;26.40;59.70
3330;DHT22;1677;49.576;10.990;2023-05-07T13:03:37;26.00;59.90
3330;DHT22;1677;49.576;10.990;2023-05-07T13:08:35;25.30;64.50
3330;DHT22;1677;49.576;10.990;2023-05-07T13:11:03;24.90;65.10
3330;DHT22;1677;49.576;10.990;2023-05-07T13:13:30;25.40;69.50
3330;DHT22;1677;49.576;10.990;2023-05-07T13:15:56;25.70;62.40
3330;DHT22;1677;49.576;10.990;2023-05-07T13:18:22;25.50;64.80
3330;DHT22;1677;49.576;10.990;2023-05-07T13:20:47;25.50;64.70
3330;DHT22;1677;49.576;10.990;2023-05-07T13:23:13;25.20;63.90
3330;DHT22;1677;49.576;10.990;2023-05-07T13:25:38;24.90;65.80
3330;DHT22;1677;49.576;10.990;2023-05-07T13:28:04;24.80;65.30
3330;DHT22;1677;49.576;10.990;2023-05-07T13:30:30;24.60;66.30
3330;DHT22;1677;49.576;10.990;2023-05-07T13:32:56;24.60;66.60
3330;DHT22;1677;49.576;10.990;2023-05-07T13:35:21;24.80;67.30
3330;DHT22;1677;49.576;10.990;2023-05-07T13:37:47;25.10;69.90
3330;DHT22;1677;49.576;10.990;2023-05-07T13:40:17;25.60;65.80
3330;DHT22;1677;49.576;10.990;2023-05-07T13:42:43;25.70;68.40
3330;DHT22;1677;49.576;10.990;2023-05-07T13:45:09;26.00;63.70
3330;DHT22;1677;49.576;10.990;2023-05-07T13:47:34;26.20;64.20
3330;DHT22;1677;49.576;10.990;2023-05-07T13:50:00;26.50;64.50
3330;DHT22;1677;49.576;10.990;2023-05-07T13:52:25;26.80;59.10
3330;DHT22;1677;49.576;10.990;2023-05-07T13:54:51;27.00;63.00
3330;DHT22;1677;49.576;10.990;2023-05-07T13:57:18;26.70;62.20
3330;DHT22;1677;49.576;10.990;2023-05-07T13:59:43;26.50;62.00
3330;DHT22;1677;49.576;10.990;2023-05-07T14:02:09;26.50;61.70
3330;DHT22;1677;49.576;10.990;2023-05-07T14:04:34;26.30;60.30
3330;DHT22;1677;49.576;10.990;2023-05-07T14:07:00;26.30;61.70
3330;DHT22;1677;49.576;10.990;2023-05-07T14:09:26;26.00;61.70
3330;DHT22;1677;49.576;10.990;2023-05-07T14:11:51;25.60;60.90
3330;DHT22;1677;49.576;10.990;2023-05-07T14:14:18;25.40;63.10
3330;DHT22;1677;49.576;10.990;2023-05-07T14:16:44;25.30;62.40
3330;DHT22;1677;49.576;10.990;2023-05-07T14:19:13;25.20;61.10
3330;DHT22;1677;49.576;10.990;2023-05-07T14:21:39;25.20;64.40
3330;DHT22;1677;49.576;10.990;2023-05-07T14:24:06;25.30;62.50
3330;DHT22;1677;49.576;10.990;2023-05-07T14:26:33;25.20;60.70
3330;DHT22;1677;49.576;10.990;2023-05-07T14:28:58;25.00;63.30
3330;DHT22;1677;49.576;10.990;2023-05-07T14:31:24;25.10;62.10
3330;DHT22;1677;49.576;10.990;2023-05-07T14:33:50;25.20;61.70
3330;DHT22;1677;49.576;10.990;2023-05-07T14:36:17;25.30;59.80
3330;DHT22;1677;49.576;10.990;2023-05-07T14:38:45;25.40;60.00
3330;DHT22;1677;49.576;10.990;2023-05-07T14:41:11;25.40;62.40
3330;DHT22;1677;49.576;10.990;2023-05-07T14:43:37;25.60;62.60
3330;DHT22;1677;49.576;10.990;2023-05-07T14:46:02;25.50;59.10
3330;DHT22;1677;49.576;10.990;2023-05-07T14:48:28;25.20;57.90
3330;DHT22;1677;49.576;10.990;2023-05-07T14:50:54;25.20;65.00
3330;DHT22;1677;49.576;10.990;2023-05-07T14:53:19;25.40;59.30
3330;DHT22;1677;49.576;10.990;2023-05-07T14:55:45;25.40;60.90
3330;DHT22;1677;49.576;10.990;2023-05-07T14:58:11;25.30;59.20
3330;DHT22;1677;49.576;10.990;2023-05-07T15:00:36;25.20;58.70
3330;DHT22;1677;49.576;10.990;2023-05-07T15:03:07;25.10;58.40
3330;DHT22;1677;49.576;10.990;2023-05-07T15:05:33;25.00;59.80
3330;DHT22;1677;49.576;10.990;2023-05-07T15:07:59;24.90;59.20
3330;DHT22;1677;49.576;10.990;2023-05-07T15:10:25;24.70;58.80
3330;DHT22;1677;49.576;10.990;2023-05-07T15:12:50;24.70;59.70
3330;DHT22;1677;49.576;10.990;2023-05-07T15:15:16;24.50;61.50
3330;DHT22;1677;49.576;10.990;2023-05-07T15:17:41;24.30;61.20
3330;DHT22;1677;49.576;10.990;2023-05-07T15:20:07;24.20;63.90
3330;DHT22;1677;49.576;10.990;2023-05-07T15:22:33;24.30;62.00
3330;DHT22;1677;49.576;10.990;2023-05-07T15:25:01;24.30;60.50
3330;DHT22;1677;49.576;10.990;2023-05-07T15:27:27;24.20;60.90
3330;DHT22;1677;49.576;10.990;2023-05-07T15:29:52;24.30;60.60
3330;DHT22;1677;49.576;10.990;2023-05-07T15:32:18;24.30;59.80
3330;DHT22;1677;49.576;10.990;2023-05-07T15:34:43;24.20;59.30
3330;DHT22;1677;49.576;10.990;2023-05-07T15:37:09;24.00;60.00
3330;DHT22;1677;49.576;10.990;2023-05-07T15:39:35;23.90;60.90
3330;DHT22;1677;49.576;10.990;2023-05-07T15:42:00;23.90;60.20
3330;DHT22;1677;49.576;10.990;2023-05-07T15:44:26;23.80;60.80
3330;DHT22;1677;49.576;10.990;2023-05-07T15:46:54;23.60;62.10
3330;DHT22;1677;49.576;10.990;2023-05-07T15:49:19;23.50;63.40